Indian Springs, Nevada Weather observations

Data are for observation ending at time listed.
 Day   Time    Ave.   Ave.  Ave.  Vector   Max.   Stn.    Total    Solar   Ave.  
  of    of     Air    Rel.  Wind   Wind    Wind   Baro.  Precip.   Rad.    Soil  
Year   Day     Temp.  Hum.  Speed  Dir.    Gust   Pres.                    Temp. 
2015   (PST)    F      %     mph   deg.    mph     mb.     in.     W/m2     F   
------------------------------------------------------------------------------
  61    9:10   42.8    85    2.4    84      6.0   896.8    0.00     161    48.6
  61    9:20   43.1    84    2.7    82      5.7   896.9    0.00     259    48.7
  61    9:30   44.0    81    2.4    39      4.5   896.9    0.00     388    48.8
  61    9:40   44.2    80    2.8    80      6.6   896.7    0.00     260    48.9
  61    9:50   44.4    80    2.3    95      4.5   896.9    0.00     260    49.0
  61   10:00   44.5    78    1.5   126      5.1   897.0    0.00     309    49.2
  61   10:10   45.3    78    2.6   101      5.8   896.9    0.00     398    49.3
  61   10:20   45.3    77    2.3   118      5.0   896.9    0.00     409    49.5
  61   10:30   45.7    76    3.6    98      8.4   897.0    0.00     565    49.7
  61   10:40   45.9    76    3.6   108      8.3   897.0    0.00     356    49.9
  61   10:50   46.1    75    3.4   104      7.7   897.0    0.00     674    50.2
  61   11:00   46.8    74    4.2    99      7.5   897.2    0.00     429    50.4
  61   11:10   46.2    74    3.8   101      8.9   897.3    0.00     200    50.6
  61   11:20   46.0    73    3.5   102      8.0   897.2    0.00     149    50.8
  61   11:30   45.6    74    3.7   100      8.9   896.9    0.00     222    51.0
  61   11:40   45.6    77    4.6    89      8.6   896.8    0.00     369    51.3
  61   11:50   46.3    75    3.5    99      7.4   896.7    0.00     456    51.3
  61   12:00   46.5    71    4.0    89      7.7   896.8    0.00     420    51.4
  61   12:10   47.0    69    3.2   106      7.5   896.6    0.01     393    51.6
  61   12:20   47.3    68    2.3   113      5.7   896.6    0.00     383    51.6
  61   12:30   47.3    67    2.8    47      6.8   896.6    0.00     219    51.8
  61   12:40   47.0    66    3.7    62      6.1   896.6    0.00     181    51.9
  61   12:50   46.9    66    1.2   135      4.5   896.7    0.00      80    52.1
  61   13:00   46.2    70    1.8   211      6.2   896.6    0.01      79    52.2
  61   13:10   45.5    71    1.3   159      4.2   896.3    0.01     312    52.3
  61   13:20   45.9    71    1.6   205      3.9   896.2    0.00     226    52.4
  61   13:30   46.7    70    1.1   227      2.9   896.2    0.00     221    52.4
  61   13:40   47.3    66    0.9   357      2.8   896.4    0.00     419    52.4
  61   13:50   48.9    66    1.3   215      3.4   896.5    0.00     491    52.4
  61   14:00   49.5    59    1.3   352      3.2   896.5    0.00     818    52.5
  61   14:10   51.0    58    2.9   296      8.5   896.8    0.00     491    52.7
  61   14:20   50.0    56    3.5   270      8.6   897.2    0.00     216    52.9
  61   14:30   49.1    58    3.7   295      8.6   897.4    0.00     152    53.2
  61   14:40   47.8    69    3.2    11      8.8   897.4    0.00     127    53.4
  61   14:50   46.9    71    4.5    19      8.8   897.4    0.00      94    53.6
  61   15:00   47.1    69    5.2    23     10.1   897.4    0.00     245    53.7
  61   15:10   47.0    67    3.7     4      9.1   897.4    0.00     188    53.8
  61   15:20   46.8    69    4.7     4     10.2   897.5    0.00     292    53.7
  61   15:30   47.5    66    6.0    17     10.1   897.5    0.00     233    53.7
  61   15:40   47.3    66    6.1    23     12.6   897.6    0.00     175    53.7
  61   15:50   45.9    68    8.0    23     13.9   897.7    0.00     215    53.7
  61   16:00   45.3    68    6.1    26     11.2   897.7    0.00     166    53.7
  61   16:10   45.3    68    5.6    18     10.2   897.7    0.00      75    53.7
  61   16:20   44.8    68    5.6    35     12.0   897.6    0.00      54    53.6
  61   16:30   45.0    67    5.4    29     12.6   897.7    0.00      57    53.5
  61   16:40   45.1    67    5.2    19      8.1   897.9    0.00      36    53.4
  61   16:50   44.7    69    6.4     4     13.8   898.3    0.00      18    53.3
  61   17:00   43.3    69    6.1     2     11.0   898.3    0.00      23    53.2
  61   17:10   42.8    70    6.3     4     12.3   898.5    0.00      25    53.0
  61   17:20   42.5    72    4.3    27     10.7   898.7    0.00      14    52.9
  61   17:30   42.5    72    3.2    12      8.1   898.8    0.00       7    52.7
  61   17:40   42.4    74    1.8    35      7.0   898.7    0.00       6    52.5
  61   17:50   42.5    73    1.4   165      2.7   898.7    0.00       0    52.4
  61   18:00   42.6    72    1.1   168      2.8   898.8    0.00       0    52.2
  61   18:10   42.8    72    2.6   188      4.9   899.1    0.00       0    52.0
  61   18:20   43.1    72    2.2   170      4.6   899.1    0.00       0    51.9
  61   18:30   43.2    72    1.9   148      4.5   899.1    0.00       0    51.8
  61   18:40   43.1    72    3.2   176      6.3   899.1    0.00       0    51.6
  61   18:50   43.1    71    3.1   170      7.2   899.0    0.00       0    51.5
  61   19:00   43.2    71    1.6   168      4.6   899.3    0.00       0    51.4
  61   19:10   43.2    72    0.7    22      2.0   899.2    0.00       0    51.3
  61   19:20   42.3    75    1.4    30      2.1   899.2    0.00       0    51.2
  61   19:30   41.8    77    2.0    59      3.7   899.3    0.00       0    51.1
  61   19:40   41.3    78    2.6    75      6.0   899.3    0.00       0    51.0
  61   19:50   41.0    78    2.3    96      4.7   899.3    0.00       0    50.8
  61   20:00   40.7    79    2.3    98      4.2   899.3    0.00       0    50.7
  61   20:10   40.8    78    2.0    90      4.2   899.4    0.00       0    50.5
  61   20:20   40.6    77    1.7    90      2.6   899.5    0.00       0    50.4
  61   20:30   40.5    78    1.2    32      1.8   899.6    0.00       0    50.2
  61   20:40   40.2    80    1.0    30      1.7   899.8    0.00       0    50.0
  61   20:50   39.8    82    0.4    36      1.7   899.7    0.00       0    49.9
  61   21:00   39.4    83    0.6   349      2.4   899.8    0.00       0    49.7
  61   21:10   39.2    83    0.7   317      2.5   899.9    0.00       0    49.6
  61   21:20   39.0    84    1.1   244      1.9   900.0    0.00       0    49.5
  61   21:30   38.8    85    0.8   260      2.0   900.2    0.00       0    49.3
  61   21:40   38.5    84    0.8   259      2.0   900.3    0.00       0    49.2
  61   21:50   38.4    85    1.4   246      2.3   900.4    0.00       0    49.0
  61   22:00   38.2    85    1.1   246      1.8   900.4    0.00       0    48.9
  61   22:10   37.9    86    1.3   276      2.3   900.2    0.00       0    48.8
  61   22:20   37.8    86    1.4   257      2.5   900.3    0.00       0    48.7
  61   22:30   37.7    86    1.5   258      2.5   900.2    0.00       0    48.5
  61   22:40   37.7    86    1.6   240      3.1   900.3    0.00       0    48.4
  61   22:50   37.9    86    0.9   260      2.6   900.3    0.00       0    48.3
  61   23:00   37.9    85    0.2   249      1.5   900.3    0.00       0    48.1
  61   23:10   37.3    86    0.5    76      1.2   900.3    0.00       0    48.0
  61   23:20   37.0    87    0.4   158      1.9   900.2    0.00       0    47.9
  61   23:30   37.3    86    0.4   190      1.5   900.3    0.00       0    47.7
  61   23:40   36.7    86    0.5   122      1.5   900.3    0.00       0    47.6
  61   23:50   37.0    86    0.2   156      1.2   900.5    0.00       0    47.5
  62    0:00   37.4    85    1.3   194      2.3   900.3    0.00       0    47.4
  62    0:10   37.5    83    0.5   194      1.6   900.2    0.00       0    47.3
  62    0:20   37.2    84    0.2   193      1.0   900.2    0.00       0    47.2
  62    0:30   37.1    84    0.3   199      1.7   900.2    0.00       0    47.1
  62    0:40   36.7    85    0.1   324      1.2   900.2    0.00       0    46.9
  62    0:50   36.6    86    1.2   298      2.3   900.2    0.00       0    46.9
  62    1:00   36.5    86    0.9   257      2.3   900.1    0.00       0    46.7
  62    1:10   36.3    86    0.9   235      2.4   900.1    0.00       0    46.6
  62    1:20   35.9    86    0.2   303      1.0   900.1    0.00       0    46.5
  62    1:30   34.9    87    0.3   152      1.8   900.0    0.00       0    46.4
  62    1:40   34.6    89    0.6   188      1.2   900.0    0.00       0    46.3
  62    1:50   34.5    89    0.7   180      2.0   899.9    0.00       0    46.2
  62    2:00   34.3    90    0.3   194      2.1   899.8    0.00       0    46.1
  62    2:10   34.3    91    1.2   215      1.9   899.8    0.00       0    46.0
  62    2:20   33.9    90    0.3   137      1.2   899.7    0.00       0    45.9
  62    2:30   33.9    90    0.3   231      1.2   899.7    0.00       0    45.8
  62    2:40   33.7    90    0.3    48      1.2   899.6    0.00       0    45.7
  62    2:50   33.1    90    0.2    35      1.2   899.5    0.00       0    45.6
  62    3:00   32.6    91    0.0     0      0.0   899.5    0.00       0    45.5
  62    3:10   32.5    91    0.0     0      0.0   899.4    0.00       0    45.5
  62    3:20   32.4    91    0.0    44      0.7   899.2    0.00       0    45.4
  62    3:30   32.7    92    0.5    14      1.6   899.5    0.00       0    45.3
  62    3:40   33.2    92    0.9   214      2.0   899.4    0.00       0    45.2
  62    3:50   33.1    92    0.3   198      0.9   899.4    0.00       0    45.1
  62    4:00   32.5    92    0.7   108      1.5   899.3    0.00       0    45.0
  62    4:10   31.7    92    0.4    78      1.5   899.2    0.00       0    44.9
  62    4:20   31.9    93    1.1    52      1.7   899.0    0.00       0    44.8
  62    4:30   32.1    93    0.3    50      1.7   899.1    0.00       0    44.7
  62    4:40   32.0    93    0.1    79      0.7   899.1    0.00       0    44.6
  62    4:50   32.2    93    0.2   331      1.5   899.1    0.00       0    44.5
  62    5:00   32.3    93    0.5   247      1.6   899.1    0.00       0    44.4
  62    5:10   32.3    93    1.2   255      2.1   899.1    0.00       0    44.3
  62    5:20   32.3    93    1.4   233      2.4   899.2    0.00       0    44.2
  62    5:30   32.4    93    2.0   240      2.9   899.3    0.00       0    44.1
  62    5:40   32.7    93    2.0   233      2.9   899.3    0.00       0    44.1
  62    5:50   33.2    92    0.9   232      2.3   899.3    0.00       0    44.0
  62    6:00   32.5    92    0.3    47      1.8   899.3    0.00       0    43.9
  62    6:10   32.4    92    0.3    38      1.4   899.1    0.00       0    43.8
  62    6:20   32.5    92    0.2    31      0.8   899.1    0.00       6    43.8
  62    6:30   32.4    92    0.3    45      1.6   898.9    0.00      11    43.7
  62    6:40   32.4    92    0.7    26      1.6   899.1    0.00      35    43.6
  62    6:50   33.3    92    0.5   206      1.6   899.2    0.00      86    43.5
  62    7:00   34.3    91    0.6   213      1.8   899.1    0.00     133    43.4
  62    7:10   36.6    89    0.3   203      1.4   899.4    0.00     171    43.3
  62    7:20   39.5    84    0.1     8      2.2   899.6    0.00     205    43.2
  62    7:30   38.6    79    1.2     4      2.3   900.0    0.00     248    43.2
  62    7:40   37.4    80    2.3   252      4.5   900.0    0.00     277    43.2
  62    7:50   37.2    83    2.4   255      4.1   900.2    0.00     311    43.3
  62    8:00   38.2    82    2.5   293      5.3   900.5    0.00     345    43.4
  62    8:10   37.9    82    2.0   301      3.6   900.8    0.00     382    43.5
  62    8:20   38.1    83    1.7   310      3.2   901.0    0.00     417    43.6
  62    8:30   39.9    80    1.9   308      3.1   901.2    0.00     452    43.8
  62    8:40   40.5    77    2.1   358      4.5   901.6    0.00     493    44.1
  62    8:50   40.7    78    1.6     2      4.4   901.8    0.00     527    44.3
  62    9:00   42.1    75    1.3   302      3.1   901.9    0.00     549    44.6

Return to Indian Springs, Nevada graphs page.


Western Regional Climate Center,wrcc@dri.edu